sensor_id;sensor_type;location;lat;lon;timestamp;P1;durP1;ratioP1;P2;durP2;ratioP2
51467;SDS011;37545;45.302;-122.946;2023-03-03T00:00:39;6.80;;;1.80;;
51467;SDS011;37545;45.302;-122.946;2023-03-03T00:03:08;10.25;;;1.88;;
51467;SDS011;37545;45.302;-122.946;2023-03-03T00:05:38;4.95;;;1.10;;
51467;SDS011;37545;45.302;-122.946;2023-03-03T00:08:09;5.70;;;1.73;;
51467;SDS011;37545;45.302;-122.946;2023-03-03T00:10:38;6.15;;;1.67;;
51467;SDS011;37545;45.302;-122.946;2023-03-03T00:13:11;4.43;;;1.23;;
51467;SDS011;37545;45.302;-122.946;2023-03-03T00:15:42;5.72;;;1.48;;
51467;SDS011;37545;45.302;-122.946;2023-03-03T00:18:20;6.53;;;1.48;;
51467;SDS011;37545;45.302;-122.946;2023-03-03T00:20:57;5.65;;;1.30;;
51467;SDS011;37545;45.302;-122.946;2023-03-03T00:23:35;3.28;;;0.90;;
51467;SDS011;37545;45.302;-122.946;2023-03-03T00:26:06;2.60;;;0.93;;
51467;SDS011;37545;45.302;-122.946;2023-03-03T00:28:45;3.28;;;0.90;;
51467;SDS011;37545;45.302;-122.946;2023-03-03T00:31:16;5.50;;;1.38;;
51467;SDS011;37545;45.302;-122.946;2023-03-03T00:33:46;3.08;;;1.05;;
51467;SDS011;37545;45.302;-122.946;2023-03-03T00:36:29;3.72;;;1.27;;
51467;SDS011;37545;45.302;-122.946;2023-03-03T00:39:12;4.60;;;1.02;;
51467;SDS011;37545;45.302;-122.946;2023-03-03T00:41:46;1.58;;;0.75;;
51467;SDS011;37545;45.302;-122.946;2023-03-03T00:52:59;6.03;;;1.13;;
51467;SDS011;37545;45.302;-122.946;2023-03-03T00:55:32;3.53;;;0.77;;
51467;SDS011;37545;45.302;-122.946;2023-03-03T00:58:01;3.08;;;1.02;;
51467;SDS011;37545;45.302;-122.946;2023-03-03T01:00:30;5.10;;;1.35;;
51467;SDS011;37545;45.302;-122.946;2023-03-03T01:03:00;2.45;;;1.00;;
51467;SDS011;37545;45.302;-122.946;2023-03-03T01:05:30;3.55;;;0.82;;
51467;SDS011;37545;45.302;-122.946;2023-03-03T01:07:59;3.88;;;0.75;;
51467;SDS011;37545;45.302;-122.946;2023-03-03T01:10:28;3.25;;;0.80;;
51467;SDS011;37545;45.302;-122.946;2023-03-03T01:13:01;5.18;;;1.67;;
51467;SDS011;37545;45.302;-122.946;2023-03-03T01:15:30;3.35;;;0.63;;
51467;SDS011;37545;45.302;-122.946;2023-03-03T01:17:58;5.43;;;1.33;;
51467;SDS011;37545;45.302;-122.946;2023-03-03T01:20:27;10.45;;;1.02;;
51467;SDS011;37545;45.302;-122.946;2023-03-03T01:22:55;7.45;;;1.58;;
51467;SDS011;37545;45.302;-122.946;2023-03-03T01:25:24;8.18;;;1.63;;
51467;SDS011;37545;45.302;-122.946;2023-03-03T01:27:54;4.88;;;1.05;;
51467;SDS011;37545;45.302;-122.946;2023-03-03T01:30:23;9.00;;;1.48;;
51467;SDS011;37545;45.302;-122.946;2023-03-03T01:32:52;6.00;;;0.80;;
51467;SDS011;37545;45.302;-122.946;2023-03-03T01:35:21;3.72;;;0.98;;
51467;SDS011;37545;45.302;-122.946;2023-03-03T01:37:50;3.28;;;1.05;;
51467;SDS011;37545;45.302;-122.946;2023-03-03T01:40:19;3.45;;;0.75;;
51467;SDS011;37545;45.302;-122.946;2023-03-03T01:42:49;5.80;;;0.80;;
51467;SDS011;37545;45.302;-122.946;2023-03-03T01:45:22;5.93;;;1.83;;
51467;SDS011;37545;45.302;-122.946;2023-03-03T01:47:53;2.25;;;0.93;;
51467;SDS011;37545;45.302;-122.946;2023-03-03T01:50:28;6.32;;;1.25;;
51467;SDS011;37545;45.302;-122.946;2023-03-03T01:53:05;7.70;;;1.30;;
51467;SDS011;37545;45.302;-122.946;2023-03-03T01:55:40;2.85;;;1.30;;
51467;SDS011;37545;45.302;-122.946;2023-03-03T01:58:11;3.72;;;0.70;;
51467;SDS011;37545;45.302;-122.946;2023-03-03T02:00:49;5.10;;;1.00;;
51467;SDS011;37545;45.302;-122.946;2023-03-03T02:03:21;2.83;;;0.93;;
51467;SDS011;37545;45.302;-122.946;2023-03-03T02:05:51;8.98;;;1.35;;
51467;SDS011;37545;45.302;-122.946;2023-03-03T02:08:23;6.28;;;1.38;;
51467;SDS011;37545;45.302;-122.946;2023-03-03T02:13:23;6.35;;;0.75;;
51467;SDS011;37545;45.302;-122.946;2023-03-03T02:15:54;7.13;;;1.02;;
51467;SDS011;37545;45.302;-122.946;2023-03-03T02:18:23;2.40;;;0.82;;
51467;SDS011;37545;45.302;-122.946;2023-03-03T02:20:54;2.75;;;1.38;;
51467;SDS011;37545;45.302;-122.946;2023-03-03T02:23:29;10.63;;;1.45;;
51467;SDS011;37545;45.302;-122.946;2023-03-03T02:26:08;6.13;;;1.00;;
51467;SDS011;37545;45.302;-122.946;2023-03-03T02:28:38;6.18;;;1.77;;
51467;SDS011;37545;45.302;-122.946;2023-03-03T02:31:08;7.38;;;1.92;;
51467;SDS011;37545;45.302;-122.946;2023-03-03T02:33:40;10.40;;;1.30;;
51467;SDS011;37545;45.302;-122.946;2023-03-03T02:36:12;5.15;;;1.05;;
51467;SDS011;37545;45.302;-122.946;2023-03-03T02:38:43;6.93;;;1.35;;
51467;SDS011;37545;45.302;-122.946;2023-03-03T02:41:20;5.97;;;2.10;;
51467;SDS011;37545;45.302;-122.946;2023-03-03T02:43:59;8.15;;;1.35;;
51467;SDS011;37545;45.302;-122.946;2023-03-03T02:46:32;5.80;;;0.80;;
51467;SDS011;37545;45.302;-122.946;2023-03-03T02:49:01;3.45;;;0.90;;
51467;SDS011;37545;45.302;-122.946;2023-03-03T02:51:30;10.43;;;1.48;;
51467;SDS011;37545;45.302;-122.946;2023-03-03T02:54:00;4.65;;;1.23;;
51467;SDS011;37545;45.302;-122.946;2023-03-03T02:56:31;5.10;;;1.23;;
51467;SDS011;37545;45.302;-122.946;2023-03-03T02:59:00;6.70;;;1.05;;
51467;SDS011;37545;45.302;-122.946;2023-03-03T03:01:28;5.70;;;0.75;;
51467;SDS011;37545;45.302;-122.946;2023-03-03T03:04:01;2.17;;;0.60;;
51467;SDS011;37545;45.302;-122.946;2023-03-03T03:06:33;3.55;;;0.63;;
51467;SDS011;37545;45.302;-122.946;2023-03-03T03:09:01;5.57;;;0.90;;
51467;SDS011;37545;45.302;-122.946;2023-03-03T03:11:33;4.22;;;0.80;;
51467;SDS011;37545;45.302;-122.946;2023-03-03T03:14:02;4.85;;;0.77;;
51467;SDS011;37545;45.302;-122.946;2023-03-03T03:16:30;0.93;;;0.40;;
51467;SDS011;37545;45.302;-122.946;2023-03-03T03:19:00;7.18;;;1.15;;
51467;SDS011;37545;45.302;-122.946;2023-03-03T03:21:29;6.00;;;1.23;;
51467;SDS011;37545;45.302;-122.946;2023-03-03T03:23:58;4.25;;;0.57;;
51467;SDS011;37545;45.302;-122.946;2023-03-03T03:26:27;1.70;;;0.60;;
51467;SDS011;37545;45.302;-122.946;2023-03-03T03:28:57;3.22;;;1.13;;
51467;SDS011;37545;45.302;-122.946;2023-03-03T03:31:26;2.30;;;0.85;;
51467;SDS011;37545;45.302;-122.946;2023-03-03T03:33:54;4.47;;;0.90;;
51467;SDS011;37545;45.302;-122.946;2023-03-03T03:36:25;2.90;;;0.68;;
51467;SDS011;37545;45.302;-122.946;2023-03-03T03:38:53;13.07;;;1.02;;
51467;SDS011;37545;45.302;-122.946;2023-03-03T03:41:22;2.88;;;0.88;;
51467;SDS011;37545;45.302;-122.946;2023-03-03T03:43:51;5.18;;;0.80;;
51467;SDS011;37545;45.302;-122.946;2023-03-03T03:46:21;1.42;;;1.17;;
51467;SDS011;37545;45.302;-122.946;2023-03-03T03:48:50;2.63;;;0.73;;
51467;SDS011;37545;45.302;-122.946;2023-03-03T03:51:18;5.10;;;1.35;;
51467;SDS011;37545;45.302;-122.946;2023-03-03T03:53:47;1.23;;;0.50;;
51467;SDS011;37545;45.302;-122.946;2023-03-03T03:56:15;3.42;;;0.82;;
51467;SDS011;37545;45.302;-122.946;2023-03-03T03:58:44;3.15;;;1.10;;
51467;SDS011;37545;45.302;-122.946;2023-03-03T04:01:13;3.95;;;0.65;;
51467;SDS011;37545;45.302;-122.946;2023-03-03T04:03:43;1.90;;;0.40;;
51467;SDS011;37545;45.302;-122.946;2023-03-03T04:06:13;1.85;;;0.80;;
51467;SDS011;37545;45.302;-122.946;2023-03-03T04:08:42;4.03;;;0.60;;
51467;SDS011;37545;45.302;-122.946;2023-03-03T04:11:10;0.93;;;0.50;;
51467;SDS011;37545;45.302;-122.946;2023-03-03T04:13:48;6.68;;;1.38;;
51467;SDS011;37545;45.302;-122.946;2023-03-03T04:16:16;4.38;;;0.85;;
51467;SDS011;37545;45.302;-122.946;2023-03-03T04:18:46;2.80;;;0.80;;
51467;SDS011;37545;45.302;-122.946;2023-03-03T04:21:15;5.22;;;1.30;;
51467;SDS011;37545;45.302;-122.946;2023-03-03T04:23:44;2.33;;;0.95;;
51467;SDS011;37545;45.302;-122.946;2023-03-03T04:26:12;3.80;;;0.95;;
51467;SDS011;37545;45.302;-122.946;2023-03-03T04:28:41;1.73;;;1.00;;
51467;SDS011;37545;45.302;-122.946;2023-03-03T04:31:10;4.40;;;1.00;;
51467;SDS011;37545;45.302;-122.946;2023-03-03T04:33:38;2.70;;;0.52;;
51467;SDS011;37545;45.302;-122.946;2023-03-03T04:36:15;3.22;;;0.77;;
51467;SDS011;37545;45.302;-122.946;2023-03-03T04:38:44;5.57;;;1.23;;
51467;SDS011;37545;45.302;-122.946;2023-03-03T04:41:12;5.50;;;1.13;;
51467;SDS011;37545;45.302;-122.946;2023-03-03T04:43:41;4.80;;;0.70;;
51467;SDS011;37545;45.302;-122.946;2023-03-03T04:46:10;2.60;;;0.90;;
51467;SDS011;37545;45.302;-122.946;2023-03-03T04:48:38;5.55;;;0.70;;
51467;SDS011;37545;45.302;-122.946;2023-03-03T04:51:07;3.08;;;0.85;;
51467;SDS011;37545;45.302;-122.946;2023-03-03T04:53:37;1.77;;;0.40;;
51467;SDS011;37545;45.302;-122.946;2023-03-03T04:56:06;10.25;;;0.98;;
51467;SDS011;37545;45.302;-122.946;2023-03-03T04:58:34;4.75;;;0.82;;
51467;SDS011;37545;45.302;-122.946;2023-03-03T05:01:03;1.73;;;0.70;;
51467;SDS011;37545;45.302;-122.946;2023-03-03T05:03:32;4.72;;;1.77;;
51467;SDS011;37545;45.302;-122.946;2023-03-03T05:06:00;1.63;;;0.73;;
51467;SDS011;37545;45.302;-122.946;2023-03-03T05:08:37;3.90;;;1.02;;
51467;SDS011;37545;45.302;-122.946;2023-03-03T05:11:07;3.88;;;0.95;;
51467;SDS011;37545;45.302;-122.946;2023-03-03T05:13:36;2.55;;;0.88;;
51467;SDS011;37545;45.302;-122.946;2023-03-03T05:16:05;5.40;;;0.80;;
51467;SDS011;37545;45.302;-122.946;2023-03-03T05:18:34;2.55;;;0.80;;
51467;SDS011;37545;45.302;-122.946;2023-03-03T05:21:02;5.30;;;2.03;;
51467;SDS011;37545;45.302;-122.946;2023-03-03T05:23:31;4.55;;;1.92;;
51467;SDS011;37545;45.302;-122.946;2023-03-03T05:26:01;11.60;;;1.63;;
51467;SDS011;37545;45.302;-122.946;2023-03-03T05:28:31;3.95;;;1.63;;
51467;SDS011;37545;45.302;-122.946;2023-03-03T05:30:59;11.15;;;2.47;;
51467;SDS011;37545;45.302;-122.946;2023-03-03T05:33:28;6.07;;;2.28;;
51467;SDS011;37545;45.302;-122.946;2023-03-03T05:35:57;14.88;;;3.85;;
51467;SDS011;37545;45.302;-122.946;2023-03-03T05:38:25;14.57;;;5.72;;
51467;SDS011;37545;45.302;-122.946;2023-03-03T05:40:54;12.02;;;3.67;;
51467;SDS011;37545;45.302;-122.946;2023-03-03T05:43:24;10.63;;;3.30;;
51467;SDS011;37545;45.302;-122.946;2023-03-03T05:45:54;7.40;;;2.58;;
51467;SDS011;37545;45.302;-122.946;2023-03-03T05:48:22;5.07;;;1.65;;
51467;SDS011;37545;45.302;-122.946;2023-03-03T05:50:51;5.57;;;1.92;;
51467;SDS011;37545;45.302;-122.946;2023-03-03T05:53:20;4.43;;;2.22;;
51467;SDS011;37545;45.302;-122.946;2023-03-03T05:55:48;10.27;;;1.90;;
51467;SDS011;37545;45.302;-122.946;2023-03-03T05:58:17;3.20;;;1.02;;
51467;SDS011;37545;45.302;-122.946;2023-03-03T06:00:47;3.75;;;2.00;;
51467;SDS011;37545;45.302;-122.946;2023-03-03T06:03:16;4.60;;;1.88;;
51467;SDS011;37545;45.302;-122.946;2023-03-03T06:05:44;6.07;;;1.15;;
51467;SDS011;37545;45.302;-122.946;2023-03-03T06:10:45;4.55;;;1.88;;
51467;SDS011;37545;45.302;-122.946;2023-03-03T06:13:13;9.40;;;1.85;;
51467;SDS011;37545;45.302;-122.946;2023-03-03T06:15:42;4.40;;;1.27;;
51467;SDS011;37545;45.302;-122.946;2023-03-03T06:18:12;4.85;;;1.35;;
51467;SDS011;37545;45.302;-122.946;2023-03-03T06:20:40;7.72;;;1.40;;
51467;SDS011;37545;45.302;-122.946;2023-03-03T06:23:09;6.30;;;1.40;;
51467;SDS011;37545;45.302;-122.946;2023-03-03T06:25:38;4.53;;;1.20;;
51467;SDS011;37545;45.302;-122.946;2023-03-03T06:28:06;6.60;;;1.45;;
51467;SDS011;37545;45.302;-122.946;2023-03-03T06:30:35;4.97;;;1.17;;
51467;SDS011;37545;45.302;-122.946;2023-03-03T06:33:03;6.25;;;1.73;;
51467;SDS011;37545;45.302;-122.946;2023-03-03T06:35:33;4.50;;;1.48;;
51467;SDS011;37545;45.302;-122.946;2023-03-03T06:38:02;8.77;;;1.50;;
51467;SDS011;37545;45.302;-122.946;2023-03-03T06:40:31;9.00;;;1.55;;
51467;SDS011;37545;45.302;-122.946;2023-03-03T06:43:03;4.25;;;0.90;;
51467;SDS011;37545;45.302;-122.946;2023-03-03T06:48:00;2.38;;;1.08;;
51467;SDS011;37545;45.302;-122.946;2023-03-03T06:50:28;7.57;;;1.10;;
51467;SDS011;37545;45.302;-122.946;2023-03-03T06:53:01;4.55;;;1.77;;
51467;SDS011;37545;45.302;-122.946;2023-03-03T06:55:37;5.53;;;1.70;;
51467;SDS011;37545;45.302;-122.946;2023-03-03T06:58:07;9.82;;;2.83;;
51467;SDS011;37545;45.302;-122.946;2023-03-03T07:00:40;6.53;;;2.70;;
51467;SDS011;37545;45.302;-122.946;2023-03-03T07:03:13;12.05;;;4.07;;
51467;SDS011;37545;45.302;-122.946;2023-03-03T07:05:43;10.88;;;2.20;;
51467;SDS011;37545;45.302;-122.946;2023-03-03T07:08:14;6.88;;;2.15;;
51467;SDS011;37545;45.302;-122.946;2023-03-03T07:10:44;5.05;;;1.70;;
51467;SDS011;37545;45.302;-122.946;2023-03-03T07:13:16;1.83;;;1.33;;
51467;SDS011;37545;45.302;-122.946;2023-03-03T07:18:23;3.00;;;1.40;;
51467;SDS011;37545;45.302;-122.946;2023-03-03T07:21:02;5.65;;;2.28;;
51467;SDS011;37545;45.302;-122.946;2023-03-03T07:23:43;5.03;;;0.93;;
51467;SDS011;37545;45.302;-122.946;2023-03-03T07:26:12;8.27;;;1.35;;
51467;SDS011;37545;45.302;-122.946;2023-03-03T07:28:43;4.50;;;1.15;;
51467;SDS011;37545;45.302;-122.946;2023-03-03T07:31:21;5.60;;;1.25;;
51467;SDS011;37545;45.302;-122.946;2023-03-03T07:33:56;6.00;;;1.23;;
51467;SDS011;37545;45.302;-122.946;2023-03-03T07:36:27;3.40;;;1.13;;
51467;SDS011;37545;45.302;-122.946;2023-03-03T07:38:59;3.33;;;1.83;;
51467;SDS011;37545;45.302;-122.946;2023-03-03T07:41:30;8.40;;;1.42;;
51467;SDS011;37545;45.302;-122.946;2023-03-03T07:44:03;4.13;;;0.73;;
51467;SDS011;37545;45.302;-122.946;2023-03-03T07:46:35;4.30;;;1.05;;
51467;SDS011;37545;45.302;-122.946;2023-03-03T07:49:13;5.78;;;1.73;;
51467;SDS011;37545;45.302;-122.946;2023-03-03T07:51:52;4.13;;;1.00;;
51467;SDS011;37545;45.302;-122.946;2023-03-03T07:54:33;2.35;;;1.08;;
51467;SDS011;37545;45.302;-122.946;2023-03-03T07:57:10;4.72;;;1.30;;
51467;SDS011;37545;45.302;-122.946;2023-03-03T07:59:52;5.30;;;1.25;;
51467;SDS011;37545;45.302;-122.946;2023-03-03T08:02:33;8.45;;;1.35;;
51467;SDS011;37545;45.302;-122.946;2023-03-03T08:05:23;6.28;;;1.63;;
51467;SDS011;37545;45.302;-122.946;2023-03-03T08:07:57;5.00;;;2.00;;
51467;SDS011;37545;45.302;-122.946;2023-03-03T08:10:45;7.13;;;3.03;;
51467;SDS011;37545;45.302;-122.946;2023-03-03T08:13:18;12.02;;;3.22;;
51467;SDS011;37545;45.302;-122.946;2023-03-03T08:15:48;8.80;;;3.00;;
51467;SDS011;37545;45.302;-122.946;2023-03-03T08:18:20;10.23;;;3.50;;
51467;SDS011;37545;45.302;-122.946;2023-03-03T08:20:51;9.77;;;2.50;;
51467;SDS011;37545;45.302;-122.946;2023-03-03T08:23:21;7.68;;;1.73;;
51467;SDS011;37545;45.302;-122.946;2023-03-03T08:25:52;10.57;;;1.92;;
51467;SDS011;37545;45.302;-122.946;2023-03-03T08:28:20;9.00;;;1.98;;
51467;SDS011;37545;45.302;-122.946;2023-03-03T08:30:49;8.82;;;2.28;;
51467;SDS011;37545;45.302;-122.946;2023-03-03T08:33:18;6.13;;;2.38;;
51467;SDS011;37545;45.302;-122.946;2023-03-03T08:35:46;3.45;;;1.75;;
51467;SDS011;37545;45.302;-122.946;2023-03-03T08:38:16;14.57;;;2.88;;
51467;SDS011;37545;45.302;-122.946;2023-03-03T08:40:46;7.00;;;1.88;;
51467;SDS011;37545;45.302;-122.946;2023-03-03T08:43:17;7.38;;;2.03;;
51467;SDS011;37545;45.302;-122.946;2023-03-03T08:45:47;2.72;;;1.60;;
51467;SDS011;37545;45.302;-122.946;2023-03-03T08:48:16;6.03;;;1.88;;
51467;SDS011;37545;45.302;-122.946;2023-03-03T08:50:46;3.83;;;1.50;;
51467;SDS011;37545;45.302;-122.946;2023-03-03T08:53:14;2.75;;;1.35;;
51467;SDS011;37545;45.302;-122.946;2023-03-03T08:55:44;6.18;;;1.73;;
51467;SDS011;37545;45.302;-122.946;2023-03-03T08:58:13;10.13;;;2.22;;
51467;SDS011;37545;45.302;-122.946;2023-03-03T09:00:44;4.07;;;1.48;;
51467;SDS011;37545;45.302;-122.946;2023-03-03T09:03:13;3.78;;;1.85;;
51467;SDS011;37545;45.302;-122.946;2023-03-03T09:05:41;3.38;;;1.27;;
51467;SDS011;37545;45.302;-122.946;2023-03-03T09:08:10;5.90;;;1.30;;
51467;SDS011;37545;45.302;-122.946;2023-03-03T09:10:39;5.30;;;1.40;;
51467;SDS011;37545;45.302;-122.946;2023-03-03T09:13:10;3.40;;;2.03;;
51467;SDS011;37545;45.302;-122.946;2023-03-03T09:15:41;4.68;;;1.50;;
51467;SDS011;37545;45.302;-122.946;2023-03-03T09:18:15;5.78;;;1.70;;
51467;SDS011;37545;45.302;-122.946;2023-03-03T09:20:47;2.78;;;1.17;;
51467;SDS011;37545;45.302;-122.946;2023-03-03T09:23:22;4.55;;;1.63;;
51467;SDS011;37545;45.302;-122.946;2023-03-03T09:25:58;4.47;;;1.77;;
51467;SDS011;37545;45.302;-122.946;2023-03-03T09:28:44;9.70;;;1.65;;
51467;SDS011;37545;45.302;-122.946;2023-03-03T09:31:19;2.88;;;1.13;;
51467;SDS011;37545;45.302;-122.946;2023-03-03T09:33:52;4.20;;;1.35;;
51467;SDS011;37545;45.302;-122.946;2023-03-03T09:36:24;9.02;;;1.33;;
51467;SDS011;37545;45.302;-122.946;2023-03-03T09:38:54;6.47;;;1.20;;
51467;SDS011;37545;45.302;-122.946;2023-03-03T09:47:10;3.97;;;1.00;;
51467;SDS011;37545;45.302;-122.946;2023-03-03T09:49:56;5.28;;;1.35;;
51467;SDS011;37545;45.302;-122.946;2023-03-03T09:52:33;2.55;;;1.42;;
51467;SDS011;37545;45.302;-122.946;2023-03-03T09:55:11;3.05;;;1.63;;
51467;SDS011;37545;45.302;-122.946;2023-03-03T09:57:56;3.33;;;0.88;;
51467;SDS011;37545;45.302;-122.946;2023-03-03T10:00:38;3.65;;;1.08;;
51467;SDS011;37545;45.302;-122.946;2023-03-03T10:06:03;9.10;;;1.65;;
51467;SDS011;37545;45.302;-122.946;2023-03-03T10:08:47;2.63;;;1.25;;
51467;SDS011;37545;45.302;-122.946;2023-03-03T10:11:30;4.38;;;1.80;;
51467;SDS011;37545;45.302;-122.946;2023-03-03T10:14:12;4.03;;;1.33;;
51467;SDS011;37545;45.302;-122.946;2023-03-03T10:16:58;7.70;;;1.00;;
51467;SDS011;37545;45.302;-122.946;2023-03-03T10:19:37;1.63;;;0.73;;
51467;SDS011;37545;45.302;-122.946;2023-03-03T10:22:17;6.60;;;0.80;;
51467;SDS011;37545;45.302;-122.946;2023-03-03T10:24:52;4.38;;;0.73;;
51467;SDS011;37545;45.302;-122.946;2023-03-03T10:27:34;2.40;;;0.80;;
51467;SDS011;37545;45.302;-122.946;2023-03-03T10:30:16;8.60;;;0.77;;
51467;SDS011;37545;45.302;-122.946;2023-03-03T10:32:53;1.55;;;0.80;;
51467;SDS011;37545;45.302;-122.946;2023-03-03T10:41:10;3.72;;;1.25;;
51467;SDS011;37545;45.302;-122.946;2023-03-03T10:44:00;2.35;;;0.75;;
51467;SDS011;37545;45.302;-122.946;2023-03-03T10:46:47;2.67;;;0.57;;
51467;SDS011;37545;45.302;-122.946;2023-03-03T10:49:33;3.50;;;0.60;;
51467;SDS011;37545;45.302;-122.946;2023-03-03T10:52:18;2.58;;;0.82;;
51467;SDS011;37545;45.302;-122.946;2023-03-03T10:55:12;2.00;;;0.70;;
51467;SDS011;37545;45.302;-122.946;2023-03-03T10:57:54;9.45;;;0.95;;
51467;SDS011;37545;45.302;-122.946;2023-03-03T11:00:33;5.00;;;1.20;;
51467;SDS011;37545;45.302;-122.946;2023-03-03T11:03:20;3.35;;;0.98;;
51467;SDS011;37545;45.302;-122.946;2023-03-03T11:06:07;1.05;;;0.40;;
51467;SDS011;37545;45.302;-122.946;2023-03-03T11:08:42;2.55;;;0.50;;
51467;SDS011;37545;45.302;-122.946;2023-03-03T11:11:18;3.00;;;0.90;;
51467;SDS011;37545;45.302;-122.946;2023-03-03T11:13:53;5.88;;;1.25;;
51467;SDS011;37545;45.302;-122.946;2023-03-03T11:16:33;6.20;;;1.42;;
51467;SDS011;37545;45.302;-122.946;2023-03-03T11:19:20;0.65;;;0.50;;
51467;SDS011;37545;45.302;-122.946;2023-03-03T11:22:01;2.92;;;0.90;;
51467;SDS011;37545;45.302;-122.946;2023-03-03T11:24:46;2.88;;;1.00;;
51467;SDS011;37545;45.302;-122.946;2023-03-03T11:27:43;5.03;;;0.60;;
51467;SDS011;37545;45.302;-122.946;2023-03-03T11:30:33;1.60;;;0.82;;
51467;SDS011;37545;45.302;-122.946;2023-03-03T11:33:11;1.05;;;0.68;;
51467;SDS011;37545;45.302;-122.946;2023-03-03T11:35:46;2.53;;;0.75;;
51467;SDS011;37545;45.302;-122.946;2023-03-03T11:38:30;3.42;;;1.38;;
51467;SDS011;37545;45.302;-122.946;2023-03-03T11:41:10;7.05;;;1.38;;
51467;SDS011;37545;45.302;-122.946;2023-03-03T11:43:48;2.45;;;0.95;;
51467;SDS011;37545;45.302;-122.946;2023-03-03T11:46:21;1.55;;;1.08;;
51467;SDS011;37545;45.302;-122.946;2023-03-03T11:48:53;2.08;;;0.82;;
51467;SDS011;37545;45.302;-122.946;2023-03-03T11:51:31;6.70;;;1.02;;
51467;SDS011;37545;45.302;-122.946;2023-03-03T11:54:14;2.17;;;0.63;;
51467;SDS011;37545;45.302;-122.946;2023-03-03T11:56:46;3.45;;;0.60;;
51467;SDS011;37545;45.302;-122.946;2023-03-03T12:02:38;2.00;;;0.98;;
51467;SDS011;37545;45.302;-122.946;2023-03-03T12:05:28;7.28;;;1.33;;
51467;SDS011;37545;45.302;-122.946;2023-03-03T12:08:07;1.20;;;0.63;;
51467;SDS011;37545;45.302;-122.946;2023-03-03T12:10:51;8.70;;;1.40;;
51467;SDS011;37545;45.302;-122.946;2023-03-03T12:13:26;4.57;;;1.30;;
51467;SDS011;37545;45.302;-122.946;2023-03-03T12:16:09;7.05;;;0.32;;
51467;SDS011;37545;45.302;-122.946;2023-03-03T12:18:49;2.78;;;1.27;;
51467;SDS011;37545;45.302;-122.946;2023-03-03T12:21:33;1.45;;;0.52;;
51467;SDS011;37545;45.302;-122.946;2023-03-03T12:24:22;0.47;;;0.40;;
51467;SDS011;37545;45.302;-122.946;2023-03-03T12:27:04;3.30;;;0.77;;
51467;SDS011;37545;45.302;-122.946;2023-03-03T12:29:41;1.38;;;0.60;;
51467;SDS011;37545;45.302;-122.946;2023-03-03T12:32:18;4.03;;;0.35;;
51467;SDS011;37545;45.302;-122.946;2023-03-03T12:35:02;4.00;;;1.05;;
51467;SDS011;37545;45.302;-122.946;2023-03-03T12:37:45;3.00;;;0.80;;
51467;SDS011;37545;45.302;-122.946;2023-03-03T12:40:20;5.03;;;1.00;;
51467;SDS011;37545;45.302;-122.946;2023-03-03T12:45:47;3.53;;;0.80;;
51467;SDS011;37545;45.302;-122.946;2023-03-03T12:48:24;4.38;;;1.40;;
51467;SDS011;37545;45.302;-122.946;2023-03-03T12:51:04;5.07;;;1.60;;
51467;SDS011;37545;45.302;-122.946;2023-03-03T12:56:51;2.03;;;0.85;;
51467;SDS011;37545;45.302;-122.946;2023-03-03T12:59:24;2.75;;;0.73;;
51467;SDS011;37545;45.302;-122.946;2023-03-03T13:02:14;2.53;;;0.73;;
51467;SDS011;37545;45.302;-122.946;2023-03-03T13:05:01;1.45;;;0.80;;
51467;SDS011;37545;45.302;-122.946;2023-03-03T13:07:44;5.80;;;0.75;;
51467;SDS011;37545;45.302;-122.946;2023-03-03T13:10:17;5.65;;;1.27;;
51467;SDS011;37545;45.302;-122.946;2023-03-03T13:12:54;4.22;;;0.30;;
51467;SDS011;37545;45.302;-122.946;2023-03-03T13:15:27;1.63;;;0.75;;
51467;SDS011;37545;45.302;-122.946;2023-03-03T13:18:01;7.63;;;1.33;;
51467;SDS011;37545;45.302;-122.946;2023-03-03T13:20:57;2.70;;;0.70;;
51467;SDS011;37545;45.302;-122.946;2023-03-03T13:23:36;5.88;;;0.85;;
51467;SDS011;37545;45.302;-122.946;2023-03-03T13:28:49;1.35;;;0.90;;
51467;SDS011;37545;45.302;-122.946;2023-03-03T13:31:27;2.08;;;0.60;;
51467;SDS011;37545;45.302;-122.946;2023-03-03T13:34:00;6.97;;;1.60;;
51467;SDS011;37545;45.302;-122.946;2023-03-03T13:36:29;1.80;;;0.82;;
51467;SDS011;37545;45.302;-122.946;2023-03-03T13:39:09;2.33;;;1.00;;
51467;SDS011;37545;45.302;-122.946;2023-03-03T13:41:47;6.32;;;0.95;;
51467;SDS011;37545;45.302;-122.946;2023-03-03T13:44:28;3.75;;;1.00;;
51467;SDS011;37545;45.302;-122.946;2023-03-03T13:47:07;3.97;;;0.98;;
51467;SDS011;37545;45.302;-122.946;2023-03-03T13:49:44;1.25;;;0.60;;
51467;SDS011;37545;45.302;-122.946;2023-03-03T13:52:23;3.60;;;0.60;;
51467;SDS011;37545;45.302;-122.946;2023-03-03T13:55:03;1.75;;;0.70;;
51467;SDS011;37545;45.302;-122.946;2023-03-03T13:57:55;2.05;;;0.60;;
51467;SDS011;37545;45.302;-122.946;2023-03-03T14:00:31;3.28;;;0.73;;
51467;SDS011;37545;45.302;-122.946;2023-03-03T14:03:14;2.88;;;0.95;;
51467;SDS011;37545;45.302;-122.946;2023-03-03T14:06:03;2.05;;;0.90;;
51467;SDS011;37545;45.302;-122.946;2023-03-03T14:08:43;4.03;;;0.82;;
51467;SDS011;37545;45.302;-122.946;2023-03-03T14:11:32;6.55;;;1.08;;
51467;SDS011;37545;45.302;-122.946;2023-03-03T14:14:12;3.88;;;0.85;;
51467;SDS011;37545;45.302;-122.946;2023-03-03T14:16:50;5.32;;;0.80;;
51467;SDS011;37545;45.302;-122.946;2023-03-03T14:19:23;4.07;;;0.65;;
51467;SDS011;37545;45.302;-122.946;2023-03-03T14:22:12;2.13;;;0.90;;
51467;SDS011;37545;45.302;-122.946;2023-03-03T14:27:40;1.83;;;1.05;;
51467;SDS011;37545;45.302;-122.946;2023-03-03T14:30:29;3.85;;;0.98;;
51467;SDS011;37545;45.302;-122.946;2023-03-03T14:35:49;4.30;;;1.60;;
51467;SDS011;37545;45.302;-122.946;2023-03-03T14:38:37;1.55;;;0.88;;
51467;SDS011;37545;45.302;-122.946;2023-03-03T14:41:12;6.13;;;1.48;;
51467;SDS011;37545;45.302;-122.946;2023-03-03T14:43:44;4.63;;;1.38;;
51467;SDS011;37545;45.302;-122.946;2023-03-03T14:49:12;5.85;;;1.20;;
51467;SDS011;37545;45.302;-122.946;2023-03-03T14:51:42;5.45;;;1.10;;
51467;SDS011;37545;45.302;-122.946;2023-03-03T14:54:15;3.78;;;1.38;;
51467;SDS011;37545;45.302;-122.946;2023-03-03T14:56:56;6.13;;;1.00;;
51467;SDS011;37545;45.302;-122.946;2023-03-03T14:59:29;7.18;;;1.10;;
51467;SDS011;37545;45.302;-122.946;2023-03-03T15:02:01;4.38;;;1.48;;
51467;SDS011;37545;45.302;-122.946;2023-03-03T15:04:50;4.50;;;1.48;;
51467;SDS011;37545;45.302;-122.946;2023-03-03T15:07:42;1.98;;;1.33;;
51467;SDS011;37545;45.302;-122.946;2023-03-03T15:10:12;1.65;;;1.00;;
51467;SDS011;37545;45.302;-122.946;2023-03-03T15:12:58;1.98;;;1.15;;
51467;SDS011;37545;45.302;-122.946;2023-03-03T15:15:38;2.08;;;1.48;;
51467;SDS011;37545;45.302;-122.946;2023-03-03T15:18:18;3.97;;;2.00;;
51467;SDS011;37545;45.302;-122.946;2023-03-03T15:20:58;3.53;;;1.02;;
51467;SDS011;37545;45.302;-122.946;2023-03-03T15:23:37;3.05;;;1.30;;
51467;SDS011;37545;45.302;-122.946;2023-03-03T15:26:12;4.65;;;1.20;;
51467;SDS011;37545;45.302;-122.946;2023-03-03T15:28:52;3.78;;;1.20;;
51467;SDS011;37545;45.302;-122.946;2023-03-03T15:31:30;6.45;;;1.83;;
51467;SDS011;37545;45.302;-122.946;2023-03-03T15:34:16;8.45;;;1.40;;
51467;SDS011;37545;45.302;-122.946;2023-03-03T15:36:54;5.00;;;1.38;;
51467;SDS011;37545;45.302;-122.946;2023-03-03T15:39:30;6.43;;;1.02;;
51467;SDS011;37545;45.302;-122.946;2023-03-03T15:42:10;3.80;;;1.55;;